NCAR-RAP Real-Time Weather Data

Output produced by METARs form (24 April 2018  16:15 UTC)
found at http://weather.rap.ucar.edu/surface/
 
RJSA 241200Z 02007KT 9999 -RA FEW005 BKN050 08/06 Q1011
RJSA 241100Z 35004KT 300V020 8000 -RA FEW003 BKN050 BKN060 08/07 Q1012
RJSA 241000Z 35004KT 8000 -RA FEW001 SCT045 BKN060 08/07 Q1011
RJSA 240900Z 34005KT 8000 -RA FEW001 SCT012 BKN040 08/07 Q1011
RJSA 240800Z 34004KT 8000 -RA FEW001 SCT010 BKN040 08/07 Q1011
RJSA 240721Z 35004KT 320V030 8000 -RA FEW001 SCT010 BKN050 09/07 Q1012 RMK 1ST001 3ST010 7SC050 A2989
RJSA 240700Z 34006KT 8000 PRFG -RA FEW001 SCT005 BKN009 09/08 Q1012
RJSA 240649Z 33005KT 300V010 7000 -RA FEW001 SCT002 BKN006 09/08 Q1012 RMK 1ST001 3ST002 6ST006 A2989
RJSA 240619Z 33005KT 290V360 6000 -RA FEW001 SCT002 BKN003 09/08 Q1012 RMK 1ST001 3ST002 6ST003 A2990
RJSA 240600Z 33005KT 6000 -RA FEW001 SCT003 BKN005 10/09 Q1012
RJSA 240516Z 33005KT 6000 -RA FEW002 SCT004 BKN006 10/08 Q1012 RMK 1ST002 3ST004 6ST006 A2991
RJSA 240500Z 34006KT 310V020 7000 -RA FEW002 SCT005 BKN040 10/08 Q1012
RJSA 240400Z 34004KT 7000 -RA FEW005 BKN007 BKN010 11/09 Q1013
RJSA 240300Z 35003KT 7000 -RA FEW005 BKN007 BKN010 11/08 Q1014
RJSA 240200Z 34003KT 300V020 6000 -RA FEW003 BKN005 BKN008 10/08 Q1015
RJSA 240100Z 01003KT 340V050 6000 BCFG -RA FEW001 BKN004 BKN008 09/08 Q1015
RJSA 240000Z 02003KT 350V050 5000 BCFG -RA BR FEW001 BKN003 BKN004 08/07 Q1016
RJSA 232323Z 05004KT 360V070 1600 BCFG BR FEW001 BKN002 BKN003 08/07 Q1016 RMK 2ST001 5ST002 7ST003 A3002
RJSA 232300Z 04003KT 1200 R24/P1800N BCFG BR BKN001 BKN003 08/07 Q1016
RJSA 232223Z 01003KT 330V040 1400 R24/1400VP1800D BCFG BR BKN001 BKN004 08/07 Q1017 RMK 5ST001 7ST004 A3004
RJSA 232200Z 01003KT 350V050 1200 R24/0550V1100N BCFG BR BKN001 BKN002 07/07 Q1017
RJSA 232140Z 03003KT 0600 R24/0700V1000U FG BKN001 BKN002 07/07 Q1017 RMK 5ST001 7ST002 A3004
RJSA 231200Z 33003KT 290V360 9999 FEW020 BKN150 08/05 Q1020
RJSA 231100Z 32003KT 260V350 9999 FEW020 BKN/// 08/05 Q1021
RJSA 231000Z 33005KT 9999 FEW020 BKN/// 08/04 Q1020
RJSA 230900Z 32005KT 300V360 9999 FEW020 BKN/// 10/04 Q1020
RJSA 230800Z 32006KT 9999 FEW020 BKN/// 12/04 Q1020
RJSA 230700Z 02006KT 360V060 9999 FEW020 BKN/// 15/03 Q1020
RJSA 230600Z 06008KT 9999 FEW020 BKN/// 15/03 Q1020
RJSA 230500Z 05009KT 010V080 9999 FEW020 BKN/// 16/02 Q1021
RJSA 230400Z 06008KT 010V090 9999 FEW020 BKN/// 15/01 Q1021
RJSA 230300Z 05006KT 350V080 9999 FEW020 BKN/// 15/01 Q1022
RJSA 230200Z 01008KT 9999 FEW020 BKN/// 14/01 Q1023
RJSA 230100Z 04010KT 9999 FEW020 BKN/// 13/03 Q1023
RJSA 230000Z 04009KT 350V060 9999 FEW015 BKN/// 12/04 Q1023
RJSA 222300Z 05011KT 9999 FEW010 BKN/// 10/05 Q1023
RJSA 222200Z 02008KT 9999 FEW008 BKN/// 09/05 Q1023
RJSA 222140Z 02006KT 9999 FEW008 BKN/// 08/05 Q1023 RMK 1ST008 A3023
RJSA 221200Z 36005KT 320V020 9999 FEW030 BKN120 09/06 Q1021
RJSA 221100Z 36006KT 330V030 9999 FEW030 BKN130 11/05 Q1020
RJSA 221000Z 03004KT 9999 FEW030 BKN040 12/05 Q1019
RJSA 220900Z 36004KT 9999 FEW030 BKN040 13/05 Q1019
RJSA 220800Z 33004KT 300V010 9999 FEW035 BKN/// 14/04 Q1019
RJSA 220700Z 35007KT 320V040 CAVOK 14/04 Q1018
RJSA 220600Z 35007KT 310V050 CAVOK 15/04 Q1018
RJSA 220500Z 35007KT 320V030 CAVOK 16/05 Q1018